createdAt,value
2017-10-10T00:00:37.207Z,11.6
2017-10-10T00:01:39.353Z,11.6
2017-10-10T00:02:41.459Z,11.6
2017-10-10T00:03:43.574Z,11.6
2017-10-10T00:04:45.712Z,11.6
2017-10-10T00:05:48.207Z,11.6
2017-10-10T00:06:50.347Z,11.6
2017-10-10T00:07:52.432Z,11.6
2017-10-10T00:08:54.554Z,11.6
2017-10-10T00:09:56.883Z,11.6
2017-10-10T00:10:59.178Z,11.6
2017-10-10T00:12:01.273Z,11.6
2017-10-10T00:13:03.405Z,11.6
2017-10-10T00:14:05.481Z,11.6
2017-10-10T00:15:07.549Z,11.6
2017-10-10T00:16:09.683Z,11.6
2017-10-10T00:17:11.898Z,11.6
2017-10-10T00:18:13.948Z,11.7
2017-10-10T00:19:16.025Z,11.6
2017-10-10T00:20:18.246Z,11.6
2017-10-10T00:21:20.371Z,11.7
2017-10-10T00:22:22.461Z,11.6
2017-10-10T00:23:24.572Z,11.6
2017-10-10T00:24:26.639Z,11.6
2017-10-10T00:25:28.791Z,11.6
2017-10-10T00:26:30.892Z,11.6
2017-10-10T00:27:33.083Z,11.6
2017-10-10T00:28:35.179Z,11.6
2017-10-10T00:29:37.298Z,11.6
2017-10-10T00:30:39.394Z,11.6
2017-10-10T00:31:41.493Z,11.6
2017-10-10T00:32:43.651Z,11.6
2017-10-10T00:33:45.770Z,11.6
2017-10-10T00:34:47.804Z,11.6
2017-10-10T00:35:49.909Z,11.6
2017-10-10T00:36:52.035Z,11.6
2017-10-10T00:37:54.139Z,11.6
2017-10-10T00:38:56.282Z,11.6
2017-10-10T00:39:58.357Z,11.6
2017-10-10T00:41:00.548Z,11.7
2017-10-10T00:42:02.985Z,11.6
2017-10-10T00:43:05.101Z,11.7
2017-10-10T00:44:07.210Z,11.6
2017-10-10T00:45:09.417Z,11.6
2017-10-10T00:46:11.539Z,11.7
2017-10-10T00:47:13.905Z,11.6
2017-10-10T00:48:16.056Z,11.6
2017-10-10T00:49:18.160Z,11.8
2017-10-10T00:50:20.237Z,11.7
2017-10-10T00:51:22.348Z,11.6
2017-10-10T00:52:24.737Z,11.7
2017-10-10T00:53:26.855Z,11.7
2017-10-10T00:54:28.944Z,11.6
2017-10-10T00:55:31.077Z,11.6
2017-10-10T00:56:33.230Z,11.6
2017-10-10T00:57:35.332Z,11.5
2017-10-10T00:58:37.499Z,11.6
2017-10-10T00:59:39.658Z,11.5
2017-10-10T01:00:41.737Z,11.6
2017-10-10T01:01:43.816Z,11.6
2017-10-10T01:02:45.972Z,11.6
2017-10-10T01:03:48.060Z,11.6
2017-10-10T01:04:50.186Z,11.6
2017-10-10T01:05:52.305Z,11.6
2017-10-10T01:06:54.416Z,11.6
2017-10-10T01:07:56.553Z,11.6
2017-10-10T01:08:58.753Z,11.6
2017-10-10T01:10:00.863Z,11.6
2017-10-10T01:11:02.997Z,11.6
2017-10-10T01:12:05.089Z,11.6
2017-10-10T01:13:07.151Z,11.6
2017-10-10T01:14:09.262Z,11.6
2017-10-10T01:15:11.398Z,11.6
2017-10-10T01:16:13.470Z,11.6
2017-10-10T01:17:15.567Z,11.5
2017-10-10T01:18:18.022Z,11.5
2017-10-10T01:19:20.322Z,11.6
2017-10-10T01:20:22.655Z,11.6
2017-10-10T01:21:24.821Z,11.6
2017-10-10T01:22:26.913Z,11.6
2017-10-10T01:23:29.020Z,11.6
2017-10-10T01:24:31.224Z,11.6
2017-10-10T01:25:33.340Z,11.6
2017-10-10T01:26:35.424Z,11.6
2017-10-10T01:27:37.523Z,11.6
2017-10-10T01:28:39.628Z,11.7
2017-10-10T01:29:41.753Z,11.7
2017-10-10T01:30:44.473Z,11.6
2017-10-10T01:31:46.722Z,11.6
2017-10-10T01:32:48.831Z,11.6
2017-10-10T01:33:51.371Z,11.7
2017-10-10T01:34:53.524Z,11.7
2017-10-10T01:35:55.671Z,11.7
2017-10-10T01:36:57.796Z,11.7
2017-10-10T01:37:59.943Z,11.7
2017-10-10T01:39:02.407Z,11.7
2017-10-10T01:40:04.804Z,11.8
2017-10-10T01:41:06.914Z,11.7
2017-10-10T01:42:09.018Z,11.6
2017-10-10T01:43:11.406Z,11.8
2017-10-10T01:44:13.746Z,11.8
2017-10-10T01:45:15.810Z,11.8
2017-10-10T01:46:17.948Z,11.7
2017-10-10T01:47:20.175Z,11.7
2017-10-10T01:48:22.290Z,11.6
2017-10-10T01:49:24.742Z,11.7
2017-10-10T01:50:26.813Z,11.6
2017-10-10T01:51:28.855Z,11.7
2017-10-10T01:52:31.012Z,11.7
2017-10-10T01:53:33.131Z,11.8
2017-10-10T01:54:35.925Z,11.6
2017-10-10T01:55:38.125Z,11.8
2017-10-10T01:56:40.244Z,11.9
2017-10-10T01:57:42.328Z,11.8
2017-10-10T01:58:44.434Z,11.8
2017-10-10T01:59:46.608Z,11.6
2017-10-10T02:00:48.696Z,11.8
2017-10-10T02:01:50.798Z,11.7
2017-10-10T02:02:52.955Z,11.7
2017-10-10T02:03:55.054Z,11.7
2017-10-10T02:04:57.244Z,11.8
2017-10-10T02:05:59.851Z,11.8
2017-10-10T02:07:01.905Z,11.9
2017-10-10T02:08:03.981Z,11.9
2017-10-10T02:09:06.106Z,11.8
2017-10-10T02:10:08.528Z,11.9
2017-10-10T02:11:10.603Z,11.7
2017-10-10T02:12:12.705Z,11.7
2017-10-10T02:13:14.795Z,11.7
2017-10-10T02:14:16.880Z,11.6
2017-10-10T02:15:19.023Z,11.7
2017-10-10T02:16:21.141Z,11.7
2017-10-10T02:17:23.262Z,11.7
2017-10-10T02:18:25.374Z,11.7
2017-10-10T02:19:27.508Z,11.7
2017-10-10T02:20:29.663Z,11.7
2017-10-10T02:21:31.769Z,11.6
2017-10-10T02:22:33.865Z,11.6
2017-10-10T02:23:35.951Z,11.7
2017-10-10T02:24:38.047Z,11.6
2017-10-10T02:25:40.470Z,11.6
2017-10-10T02:26:42.552Z,11.6
2017-10-10T02:27:44.667Z,11.6
2017-10-10T02:28:46.805Z,11.7
2017-10-10T02:29:48.863Z,11.6
2017-10-10T02:30:50.979Z,11.6
2017-10-10T02:31:53.120Z,11.6
2017-10-10T02:32:55.201Z,11.6
2017-10-10T02:33:57.348Z,11.6
2017-10-10T02:34:59.480Z,11.6
2017-10-10T02:36:01.617Z,11.6
2017-10-10T02:37:03.714Z,11.6
2017-10-10T02:38:05.812Z,11.6
2017-10-10T02:39:08.084Z,11.6
2017-10-10T02:40:10.290Z,11.6
2017-10-10T02:41:12.677Z,11.7
2017-10-10T02:42:14.743Z,11.7
2017-10-10T02:43:16.834Z,11.9
2017-10-10T02:44:18.892Z,11.8
2017-10-10T02:45:21.298Z,11.8
2017-10-10T02:46:23.477Z,11.8
2017-10-10T02:47:25.604Z,11.8
2017-10-10T02:48:27.678Z,11.9
2017-10-10T02:49:29.787Z,11.9
2017-10-10T02:50:31.891Z,11.8
2017-10-10T02:51:34.574Z,11.7
2017-10-10T02:52:36.625Z,11.7
2017-10-10T02:53:38.711Z,11.7
2017-10-10T02:54:40.759Z,11.7
2017-10-10T02:55:42.837Z,11.6
2017-10-10T02:56:45.356Z,11.7
2017-10-10T02:57:47.480Z,11.7
2017-10-10T02:58:49.593Z,11.7
2017-10-10T02:59:51.669Z,11.7
2017-10-10T03:00:53.761Z,11.6
2017-10-10T03:01:55.858Z,11.6
2017-10-10T03:02:57.992Z,11.8
2017-10-10T03:04:00.146Z,11.8
2017-10-10T03:05:02.215Z,11.8
2017-10-10T03:06:04.349Z,11.7
2017-10-10T03:07:06.703Z,11.7
2017-10-10T03:08:08.787Z,11.7
2017-10-10T03:09:10.893Z,11.7
2017-10-10T03:10:13.363Z,11.7
2017-10-10T03:11:15.626Z,11.6
2017-10-10T03:12:17.979Z,11.6
2017-10-10T03:13:20.061Z,11.8
2017-10-10T03:14:22.141Z,11.7
2017-10-10T03:15:24.282Z,11.6
2017-10-10T03:16:26.356Z,11.6
2017-10-10T03:17:28.437Z,11.6
2017-10-10T03:18:30.556Z,11.7
2017-10-10T03:19:32.606Z,11.6
2017-10-10T03:20:34.704Z,11.6
2017-10-10T03:21:36.831Z,11.6
2017-10-10T03:22:38.921Z,11.7
2017-10-10T03:23:40.998Z,11.6
2017-10-10T03:24:43.096Z,11.6
2017-10-10T03:25:45.164Z,11.6
2017-10-10T03:26:47.216Z,11.6
2017-10-10T03:27:49.351Z,11.6
2017-10-10T03:28:51.400Z,11.6
2017-10-10T03:29:53.515Z,11.6
2017-10-10T03:30:55.757Z,11.6
2017-10-10T03:31:57.869Z,11.6
2017-10-10T03:33:00.046Z,11.5
2017-10-10T03:34:02.125Z,11.6
2017-10-10T03:35:04.306Z,11.5
2017-10-10T03:36:06.513Z,11.5
2017-10-10T03:37:08.683Z,11.5
2017-10-10T03:38:10.788Z,11.6
2017-10-10T03:39:12.857Z,11.6
2017-10-10T03:40:14.939Z,11.7
2017-10-10T03:41:17.042Z,11.6
2017-10-10T03:42:19.123Z,11.5
2017-10-10T03:43:21.494Z,11.5
2017-10-10T03:44:23.700Z,11.5
2017-10-10T03:45:25.755Z,11.6
2017-10-10T03:46:27.854Z,11.6
2017-10-10T03:47:29.897Z,11.5
2017-10-10T03:48:32.032Z,11.5
2017-10-10T03:49:34.105Z,11.5
2017-10-10T03:50:36.184Z,11.6
2017-10-10T03:51:38.239Z,11.5
2017-10-10T03:52:40.286Z,11.5
2017-10-10T03:53:42.431Z,11.5
2017-10-10T03:54:44.508Z,11.5
2017-10-10T03:55:46.656Z,11.5
2017-10-10T03:56:48.781Z,11.5
2017-10-10T03:57:51.107Z,11.6
2017-10-10T03:58:53.269Z,11.6
2017-10-10T03:59:55.349Z,11.6
2017-10-10T04:00:57.388Z,11.6
2017-10-10T04:01:59.502Z,11.6
2017-10-10T04:03:01.580Z,11.6
2017-10-10T04:04:03.791Z,11.6
2017-10-10T04:05:05.980Z,11.6
2017-10-10T04:06:08.029Z,11.6
2017-10-10T04:07:10.123Z,11.5
2017-10-10T04:08:12.209Z,11.6
2017-10-10T04:09:14.373Z,11.5
2017-10-10T04:10:16.452Z,11.6
2017-10-10T04:11:18.554Z,11.6
2017-10-10T04:12:20.639Z,11.6
2017-10-10T04:13:22.749Z,11.5
2017-10-10T04:14:24.904Z,11.6
2017-10-10T04:15:27.032Z,11.5
2017-10-10T04:16:29.099Z,11.6
2017-10-10T04:17:31.187Z,11.6
2017-10-10T04:18:33.289Z,11.5
2017-10-10T04:19:35.494Z,11.5
2017-10-10T04:20:37.592Z,11.5
2017-10-10T04:21:39.644Z,11.5
2017-10-10T04:22:41.691Z,11.6
2017-10-10T04:23:43.738Z,11.6
2017-10-10T04:24:45.875Z,11.5
2017-10-10T04:25:47.957Z,11.5
2017-10-10T04:26:50.031Z,11.5
2017-10-10T04:27:52.099Z,11.5
2017-10-10T04:28:54.162Z,11.5
2017-10-10T04:29:56.259Z,11.5
2017-10-10T04:30:58.577Z,11.4
2017-10-10T04:32:00.692Z,11.5
2017-10-10T04:33:02.787Z,11.4
2017-10-10T04:34:04.906Z,11.5
2017-10-10T04:35:07.024Z,11.5
2017-10-10T04:36:09.118Z,11.4
2017-10-10T04:37:11.218Z,11.5
2017-10-10T04:38:13.316Z,11.5
2017-10-10T04:39:15.442Z,11.5
2017-10-10T04:40:17.592Z,11.5
2017-10-10T04:41:19.629Z,11.5
2017-10-10T04:42:21.698Z,11.6
2017-10-10T04:43:24.042Z,11.5
2017-10-10T04:44:26.153Z,11.6
2017-10-10T04:45:28.272Z,11.7
2017-10-10T04:46:30.336Z,11.7
2017-10-10T04:47:32.391Z,11.6
2017-10-10T04:48:34.695Z,11.5
2017-10-10T04:49:36.793Z,11.5
2017-10-10T04:50:38.877Z,11.5
2017-10-10T04:51:40.947Z,11.5
2017-10-10T04:52:43.019Z,11.6
2017-10-10T04:53:45.105Z,11.7
2017-10-10T04:54:47.150Z,11.6
2017-10-10T04:55:49.304Z,11.6
2017-10-10T04:56:51.480Z,11.6
2017-10-10T04:57:53.565Z,11.7
2017-10-10T04:58:55.711Z,11.7
2017-10-10T04:59:57.816Z,11.7
2017-10-10T05:00:59.968Z,11.6
2017-10-10T05:02:02.033Z,11.6
2017-10-10T05:03:04.305Z,11.6
2017-10-10T05:04:06.418Z,11.6
2017-10-10T05:05:08.529Z,11.6
2017-10-10T05:06:10.676Z,11.6
2017-10-10T05:07:12.877Z,11.6
2017-10-10T05:08:15.013Z,11.6
2017-10-10T05:09:17.061Z,11.6
2017-10-10T05:10:19.178Z,11.6
2017-10-10T05:11:21.327Z,11.6
2017-10-10T05:12:23.392Z,11.7
2017-10-10T05:13:25.492Z,11.7
2017-10-10T05:14:27.606Z,11.6
2017-10-10T05:15:29.791Z,11.6
2017-10-10T05:16:31.977Z,11.6
2017-10-10T05:17:34.139Z,11.6
2017-10-10T05:18:36.234Z,11.6
2017-10-10T05:19:38.335Z,11.6
2017-10-10T05:20:40.409Z,11.7
2017-10-10T05:21:42.538Z,11.6
2017-10-10T05:22:44.601Z,11.7
2017-10-10T05:23:46.703Z,11.6
2017-10-10T05:24:48.852Z,11.7
2017-10-10T05:25:51.041Z,11.6
2017-10-10T05:26:53.176Z,11.6
2017-10-10T05:27:55.275Z,11.7
2017-10-10T05:28:57.347Z,11.6
2017-10-10T05:29:59.433Z,11.7
2017-10-10T05:31:01.547Z,11.8
2017-10-10T05:32:03.643Z,11.7
2017-10-10T05:33:05.745Z,11.8
2017-10-10T05:34:07.858Z,11.6
2017-10-10T05:35:09.903Z,11.8
2017-10-10T05:36:12.027Z,11.6
2017-10-10T05:37:14.183Z,11.7
2017-10-10T05:38:16.258Z,11.6
2017-10-10T05:39:18.338Z,11.8
2017-10-10T05:40:20.435Z,11.8
2017-10-10T05:41:22.501Z,11.8
2017-10-10T05:42:24.945Z,11.8
2017-10-10T05:43:27.048Z,11.7
2017-10-10T05:44:29.186Z,11.7
2017-10-10T05:45:31.297Z,11.8
2017-10-10T05:46:33.417Z,11.8
2017-10-10T05:47:35.563Z,11.7
2017-10-10T05:48:38.508Z,11.8
2017-10-10T05:49:40.639Z,11.8
2017-10-10T05:50:42.854Z,11.8
2017-10-10T05:51:45.120Z,11.7
2017-10-10T05:52:47.261Z,11.8
2017-10-10T05:53:49.348Z,11.7
2017-10-10T05:54:51.458Z,11.6
2017-10-10T05:55:53.579Z,11.7
2017-10-10T05:56:55.715Z,11.8
2017-10-10T05:57:57.857Z,11.8
2017-10-10T05:58:59.938Z,11.7
2017-10-10T06:00:02.073Z,11.7
2017-10-10T06:01:04.178Z,11.7
2017-10-10T06:02:06.306Z,11.7
2017-10-10T06:03:08.424Z,11.7
2017-10-10T06:04:10.575Z,11.8
2017-10-10T06:05:12.684Z,11.8
2017-10-10T06:06:14.798Z,11.7
2017-10-10T06:07:16.872Z,11.7
2017-10-10T06:08:19.321Z,11.6
2017-10-10T06:09:21.401Z,11.7
2017-10-10T06:10:23.506Z,11.7
2017-10-10T06:11:25.608Z,11.7
2017-10-10T06:12:27.763Z,11.7
2017-10-10T06:13:29.919Z,11.7
2017-10-10T06:14:32.044Z,11.7
2017-10-10T06:15:34.130Z,11.8
2017-10-10T06:16:36.235Z,11.7
2017-10-10T06:17:38.351Z,11.8
2017-10-10T06:18:40.465Z,11.8
2017-10-10T06:19:42.692Z,11.8
2017-10-10T06:20:44.772Z,11.9
2017-10-10T06:21:46.943Z,11.8
2017-10-10T06:22:49.028Z,11.8
2017-10-10T06:23:51.189Z,11.7
2017-10-10T06:24:53.263Z,11.8
2017-10-10T06:25:55.397Z,11.8
2017-10-10T06:26:57.482Z,11.8
2017-10-10T06:27:59.623Z,11.8
2017-10-10T06:29:01.840Z,11.8
2017-10-10T06:30:04.068Z,11.8
2017-10-10T06:31:06.342Z,11.7
2017-10-10T06:32:09.189Z,11.7
2017-10-10T06:33:11.289Z,11.7
2017-10-10T06:34:13.427Z,11.7
2017-10-10T06:35:15.557Z,11.8
2017-10-10T06:36:17.705Z,11.7
2017-10-10T06:37:19.867Z,11.8
2017-10-10T06:38:21.957Z,11.8
2017-10-10T06:39:24.122Z,11.8
2017-10-10T06:40:26.233Z,11.7
2017-10-10T06:41:28.551Z,11.8
2017-10-10T06:42:31.100Z,11.8
2017-10-10T06:43:33.191Z,11.7
2017-10-10T06:44:35.362Z,11.8
2017-10-10T06:45:37.486Z,11.8
2017-10-10T06:46:39.607Z,11.8
2017-10-10T06:47:41.760Z,11.9
2017-10-10T06:48:43.908Z,11.9
2017-10-10T06:49:46.088Z,11.9
2017-10-10T06:50:48.196Z,11.9
2017-10-10T06:51:50.534Z,11.9
2017-10-10T06:52:52.665Z,11.8
2017-10-10T06:53:54.781Z,11.9
2017-10-10T06:54:57.301Z,11.9
2017-10-10T06:55:59.408Z,11.9
2017-10-10T06:57:01.504Z,11.9
2017-10-10T06:58:03.618Z,11.9
2017-10-10T06:59:05.777Z,11.8
2017-10-10T07:00:08.200Z,11.9
2017-10-10T07:01:10.294Z,11.9
2017-10-10T07:02:12.456Z,12
2017-10-10T07:03:14.546Z,12
2017-10-10T07:04:16.638Z,12
2017-10-10T07:05:18.753Z,11.9
2017-10-10T07:06:20.853Z,11.9
2017-10-10T07:07:23.000Z,11.9
2017-10-10T07:08:25.154Z,11.9
2017-10-10T07:09:27.350Z,11.8
2017-10-10T07:10:29.761Z,11.8
2017-10-10T07:11:31.904Z,11.9
2017-10-10T07:12:33.998Z,11.9
2017-10-10T07:13:36.369Z,11.9
2017-10-10T07:14:38.547Z,11.9
2017-10-10T07:15:41.009Z,12
2017-10-10T07:16:43.280Z,11.9
2017-10-10T07:17:45.407Z,11.9
2017-10-10T07:18:47.569Z,11.9
2017-10-10T07:19:49.702Z,12
2017-10-10T07:20:51.880Z,12
2017-10-10T07:21:53.950Z,12
2017-10-10T07:22:56.169Z,11.9
2017-10-10T07:23:58.461Z,12
2017-10-10T07:25:00.647Z,12
2017-10-10T07:26:03.057Z,12.1
2017-10-10T07:27:05.190Z,12.1
2017-10-10T07:28:07.300Z,12.1
2017-10-10T07:29:09.434Z,12.1
2017-10-10T07:30:11.546Z,12.2
2017-10-10T07:31:14.324Z,12.2
2017-10-10T07:32:16.498Z,12.2
2017-10-10T07:33:18.600Z,12.1
2017-10-10T07:34:20.684Z,12.2
2017-10-10T07:35:22.864Z,12.2
2017-10-10T07:36:25.262Z,12.2
2017-10-10T07:37:27.467Z,12.2
2017-10-10T07:38:29.580Z,12.1
2017-10-10T07:39:31.722Z,12.3
2017-10-10T07:40:33.841Z,12.3
2017-10-10T07:41:35.954Z,12.3
2017-10-10T07:42:38.100Z,12.3
2017-10-10T07:43:40.291Z,12.3
2017-10-10T07:44:42.509Z,12.2
2017-10-10T07:45:44.620Z,12.2
2017-10-10T07:46:46.743Z,12.1
2017-10-10T07:47:48.836Z,12.2
2017-10-10T07:48:50.898Z,12.2
2017-10-10T07:49:52.989Z,12.2
2017-10-10T07:50:55.081Z,12.2
2017-10-10T07:51:57.246Z,12.2
2017-10-10T07:52:59.443Z,12.1
2017-10-10T07:54:01.533Z,12.1
2017-10-10T07:55:03.623Z,12.3
2017-10-10T07:56:05.734Z,12.3
2017-10-10T07:57:07.845Z,12.3
2017-10-10T07:58:09.901Z,12.3
2017-10-10T07:59:12.030Z,12.2
2017-10-10T08:00:14.128Z,12.1
2017-10-10T08:01:16.248Z,12.2
2017-10-10T08:02:18.409Z,12.3
2017-10-10T08:03:20.472Z,12.1
2017-10-10T08:04:22.566Z,12.2
2017-10-10T08:05:24.747Z,12.2
2017-10-10T08:06:27.041Z,12.3
2017-10-10T08:07:29.224Z,12.4
2017-10-10T08:08:31.316Z,12.5
2017-10-10T08:09:33.430Z,12.4
2017-10-10T08:10:35.567Z,12.4
2017-10-10T08:11:37.651Z,12.4
2017-10-10T08:12:40.029Z,12.5
2017-10-10T08:13:42.228Z,12.4
2017-10-10T08:14:44.370Z,12.4
2017-10-10T08:15:46.478Z,12.2
2017-10-10T08:16:48.590Z,12.3
2017-10-10T08:17:50.996Z,12.1
2017-10-10T08:18:53.186Z,12.2
2017-10-10T08:19:55.322Z,12.2
2017-10-10T08:20:57.474Z,12.2
2017-10-10T08:21:59.625Z,12.2
2017-10-10T08:23:01.741Z,12.3
2017-10-10T08:24:03.888Z,12.3
2017-10-10T08:25:05.984Z,12.4
2017-10-10T08:26:08.093Z,12.3
2017-10-10T08:27:10.198Z,12.4
2017-10-10T08:28:12.367Z,12.3
2017-10-10T08:29:14.463Z,12.2
2017-10-10T08:30:16.590Z,12.2
2017-10-10T08:31:18.703Z,12.2
2017-10-10T08:32:20.824Z,12.2
2017-10-10T08:33:22.970Z,12.2
2017-10-10T08:34:25.088Z,12.2
2017-10-10T08:35:27.176Z,12.3
2017-10-10T08:36:29.243Z,12.2
2017-10-10T08:37:31.446Z,12.2
2017-10-10T08:38:33.586Z,12.2
2017-10-10T08:39:35.715Z,12.2
2017-10-10T08:40:37.861Z,12.2
2017-10-10T08:41:39.968Z,12.2
2017-10-10T08:42:42.060Z,12.2
2017-10-10T08:43:44.480Z,12.2
2017-10-10T08:44:46.615Z,12.2
2017-10-10T08:45:48.656Z,12.3
2017-10-10T08:46:50.765Z,12.3
2017-10-10T08:47:52.905Z,12.4
2017-10-10T08:48:54.989Z,12.4
2017-10-10T08:49:57.167Z,12.3
2017-10-10T08:50:59.354Z,12.2
2017-10-10T08:52:01.460Z,12.2
2017-10-10T08:53:03.585Z,12.3
2017-10-10T08:54:05.717Z,12.2
2017-10-10T08:55:07.835Z,12.2
2017-10-10T08:56:09.981Z,12.3
2017-10-10T08:57:12.083Z,12.3
2017-10-10T08:58:14.222Z,12.3
2017-10-10T08:59:16.411Z,12.3
2017-10-10T09:00:18.524Z,12.3
2017-10-10T09:01:20.706Z,12.4
2017-10-10T09:02:22.822Z,12.5
2017-10-10T09:03:24.949Z,12.6
2017-10-10T09:04:27.081Z,12.5
2017-10-10T09:05:29.620Z,12.4
2017-10-10T09:06:31.808Z,12.4
2017-10-10T09:07:33.944Z,12.4
2017-10-10T09:08:36.137Z,12.4
2017-10-10T09:09:38.269Z,12.5
2017-10-10T09:10:40.400Z,12.5
2017-10-10T09:11:42.544Z,12.4
2017-10-10T09:12:44.736Z,12.4
2017-10-10T09:13:46.830Z,12.4
2017-10-10T09:14:48.998Z,12.4
2017-10-10T09:15:51.116Z,12.5
2017-10-10T09:16:53.191Z,12.5
2017-10-10T09:17:55.309Z,12.5
2017-10-10T09:18:57.470Z,12.5
2017-10-10T09:19:59.822Z,12.3
2017-10-10T09:21:01.907Z,12.4
2017-10-10T09:22:04.074Z,12.6
2017-10-10T09:23:06.173Z,12.6
2017-10-10T09:24:08.281Z,12.6
2017-10-10T09:25:10.501Z,12.5
2017-10-10T09:26:12.615Z,12.6
2017-10-10T09:27:14.763Z,12.5
2017-10-10T09:28:16.903Z,12.6
2017-10-10T09:29:19.014Z,12.5
2017-10-10T09:30:21.497Z,12.6
2017-10-10T09:31:23.599Z,12.4
2017-10-10T09:32:25.756Z,12.5
2017-10-10T09:33:27.892Z,12.5
2017-10-10T09:34:30.047Z,12.5
2017-10-10T09:35:32.464Z,12.6
2017-10-10T09:36:34.656Z,12.6
2017-10-10T09:37:36.757Z,12.6
2017-10-10T09:38:38.866Z,12.6
2017-10-10T09:39:40.934Z,12.5
2017-10-10T09:40:43.446Z,12.5
2017-10-10T09:41:45.566Z,12.5
2017-10-10T09:42:47.630Z,12.4
2017-10-10T09:43:49.741Z,12.5
2017-10-10T09:44:51.890Z,12.6
2017-10-10T09:45:54.043Z,12.6
2017-10-10T09:46:56.197Z,12.7
2017-10-10T09:47:58.345Z,12.7
2017-10-10T09:49:00.469Z,12.6
2017-10-10T09:50:02.527Z,12.6
2017-10-10T09:51:04.721Z,12.5
2017-10-10T09:52:06.850Z,12.5
2017-10-10T09:53:08.976Z,12.5
2017-10-10T09:54:11.125Z,12.6
2017-10-10T09:55:13.327Z,12.6
2017-10-10T09:56:15.500Z,12.7
2017-10-10T09:57:17.613Z,12.6
2017-10-10T09:58:19.826Z,12.6
2017-10-10T09:59:21.965Z,12.6
2017-10-10T10:00:24.416Z,12.6
2017-10-10T10:01:26.581Z,12.6
2017-10-10T10:02:28.717Z,12.6
2017-10-10T10:03:30.844Z,12.6
2017-10-10T10:04:32.941Z,12.6
2017-10-10T10:05:35.062Z,12.7
2017-10-10T10:06:37.234Z,12.7
2017-10-10T10:07:39.560Z,12.6
2017-10-10T10:08:41.694Z,12.8
2017-10-10T10:09:43.826Z,12.8
2017-10-10T10:10:45.923Z,12.7
2017-10-10T10:11:48.054Z,12.7
2017-10-10T10:12:50.211Z,12.8
2017-10-10T10:13:52.369Z,12.7
2017-10-10T10:14:54.472Z,12.8
2017-10-10T10:15:56.541Z,12.8
2017-10-10T10:16:58.656Z,12.9
2017-10-10T10:18:00.775Z,12.8
2017-10-10T10:19:02.843Z,12.7
2017-10-10T10:20:04.971Z,12.7
2017-10-10T10:21:07.061Z,12.8
2017-10-10T10:22:09.203Z,12.8
2017-10-10T10:23:11.315Z,12.8
2017-10-10T10:24:13.545Z,12.8
2017-10-10T10:25:15.702Z,12.8
2017-10-10T10:26:17.809Z,12.8
2017-10-10T10:27:20.248Z,12.8
2017-10-10T10:28:22.312Z,12.8
2017-10-10T10:29:24.364Z,12.8
2017-10-10T10:30:26.448Z,12.8
2017-10-10T10:31:28.557Z,12.7
2017-10-10T10:32:30.740Z,12.7
2017-10-10T10:33:32.884Z,12.7
2017-10-10T10:34:35.148Z,12.8
2017-10-10T10:35:37.308Z,12.8
2017-10-10T10:36:39.459Z,12.8
2017-10-10T10:37:41.546Z,12.8
2017-10-10T10:38:43.660Z,12.8
2017-10-10T10:39:45.740Z,12.8
2017-10-10T10:40:47.814Z,12.7
2017-10-10T10:41:49.965Z,12.7
2017-10-10T10:42:52.286Z,12.7
2017-10-10T10:43:54.340Z,12.6
2017-10-10T10:44:56.420Z,12.7
2017-10-10T10:45:58.503Z,12.7
2017-10-10T10:47:00.581Z,12.8
2017-10-10T10:48:02.708Z,12.8
2017-10-10T10:49:04.831Z,12.8
2017-10-10T10:50:06.874Z,12.8
2017-10-10T10:51:08.970Z,12.7
2017-10-10T10:52:11.036Z,12.7
2017-10-10T10:53:13.399Z,12.7
2017-10-10T10:54:15.523Z,12.7
2017-10-10T10:55:17.577Z,12.8
2017-10-10T10:56:19.668Z,12.9
2017-10-10T10:57:21.789Z,12.8
2017-10-10T10:58:24.273Z,12.9
2017-10-10T10:59:26.391Z,12.8
2017-10-10T11:00:28.531Z,12.7
2017-10-10T11:01:30.686Z,12.7
2017-10-10T11:02:32.790Z,12.7
2017-10-10T11:03:34.955Z,12.8
2017-10-10T11:04:37.045Z,12.8
2017-10-10T11:05:39.187Z,12.8
2017-10-10T11:06:41.298Z,12.9
2017-10-10T11:07:43.431Z,13
2017-10-10T11:08:45.571Z,12.9
2017-10-10T11:09:47.675Z,13
2017-10-10T11:10:49.783Z,13
2017-10-10T11:11:51.963Z,13
2017-10-10T11:12:54.088Z,13
2017-10-10T11:13:56.160Z,12.9
2017-10-10T11:14:58.267Z,12.9
2017-10-10T11:16:00.361Z,12.9
2017-10-10T11:17:02.421Z,13
2017-10-10T11:18:04.504Z,13
2017-10-10T11:19:06.614Z,13.1
2017-10-10T11:20:08.685Z,13
2017-10-10T11:21:10.787Z,13
2017-10-10T11:22:12.925Z,13
2017-10-10T11:23:15.260Z,13.1
2017-10-10T11:24:17.371Z,13
2017-10-10T11:25:19.437Z,13
2017-10-10T11:26:21.519Z,12.9
2017-10-10T11:27:23.664Z,13
2017-10-10T11:28:25.790Z,12.9
2017-10-10T11:29:28.003Z,12.9
2017-10-10T11:30:30.082Z,12.9
2017-10-10T11:31:32.192Z,12.9
2017-10-10T11:32:34.308Z,13
2017-10-10T11:33:36.388Z,13
2017-10-10T11:34:38.522Z,13.1
2017-10-10T11:35:40.865Z,13
2017-10-10T11:36:42.958Z,13.1
2017-10-10T11:37:45.114Z,13.1
2017-10-10T11:38:47.230Z,13.1
2017-10-10T11:39:49.713Z,13.1
2017-10-10T11:40:51.791Z,13.1
2017-10-10T11:41:53.848Z,13.1
2017-10-10T11:42:55.971Z,13
2017-10-10T11:43:58.088Z,13.1
2017-10-10T11:45:00.470Z,13.1
2017-10-10T11:46:02.554Z,13.1
2017-10-10T11:47:04.613Z,13.1
2017-10-10T11:48:06.703Z,13.1
2017-10-10T11:49:08.957Z,13.1
2017-10-10T11:50:11.434Z,13.1
2017-10-10T11:51:13.518Z,13.1
2017-10-10T11:52:15.601Z,13.1
2017-10-10T11:53:17.847Z,13.2
2017-10-10T11:54:19.949Z,13.2
2017-10-10T11:55:22.055Z,13.3
2017-10-10T11:56:24.191Z,13.3
2017-10-10T11:57:26.316Z,13.3
2017-10-10T11:58:28.530Z,13.3
2017-10-10T11:59:30.625Z,13.2
2017-10-10T12:00:32.825Z,13.2
2017-10-10T12:01:35.019Z,13.2
2017-10-10T12:02:37.115Z,13.2
2017-10-10T12:03:39.254Z,13.2
2017-10-10T12:04:41.397Z,13.3
2017-10-10T12:05:43.586Z,13.3
2017-10-10T12:06:45.678Z,13.3
2017-10-10T12:07:47.774Z,13.3
2017-10-10T12:08:49.881Z,13.4
2017-10-10T12:09:51.981Z,13.4
2017-10-10T12:10:54.132Z,13.4
2017-10-10T12:11:56.296Z,13.5
2017-10-10T12:12:58.444Z,13.4
2017-10-10T12:14:00.579Z,13.5
2017-10-10T12:15:02.721Z,13.5
2017-10-10T12:16:05.145Z,13.6
2017-10-10T12:17:07.225Z,13.7
2017-10-10T12:18:09.415Z,13.6
2017-10-10T12:19:11.790Z,13.6
2017-10-10T12:20:13.955Z,13.6
2017-10-10T12:21:16.389Z,13.7
2017-10-10T12:22:18.490Z,13.6
2017-10-10T12:23:20.636Z,13.7
2017-10-10T12:24:22.903Z,13.7
2017-10-10T12:25:25.031Z,13.8
2017-10-10T12:26:27.165Z,14
2017-10-10T12:27:29.299Z,14
2017-10-10T12:28:31.384Z,14.1
2017-10-10T12:29:33.575Z,14.2
2017-10-10T12:30:35.980Z,14.3
2017-10-10T12:31:38.371Z,14.2
2017-10-10T12:32:40.452Z,14.1
2017-10-10T12:33:42.478Z,14
2017-10-10T12:34:44.597Z,14
2017-10-10T12:35:46.725Z,13.9
2017-10-10T12:36:49.122Z,13.9
2017-10-10T12:37:51.214Z,13.9
2017-10-10T12:38:53.317Z,14.1
2017-10-10T12:39:55.508Z,14.1
2017-10-10T12:40:57.656Z,14
2017-10-10T12:41:59.799Z,14.1
2017-10-10T12:43:01.907Z,14
2017-10-10T12:44:04.078Z,14
2017-10-10T12:45:06.227Z,14.2
2017-10-10T12:46:08.804Z,14.1
2017-10-10T12:47:11.239Z,14.1
2017-10-10T12:48:13.489Z,14.1
2017-10-10T12:49:15.583Z,14.1
2017-10-10T12:50:17.672Z,14.2
2017-10-10T12:51:19.730Z,14.1
2017-10-10T12:52:21.914Z,14.2
2017-10-10T12:53:24.045Z,14.4
2017-10-10T12:54:26.138Z,14.4
2017-10-10T12:55:28.312Z,14.4
2017-10-10T12:56:30.380Z,14.3
2017-10-10T12:57:32.454Z,14.4
2017-10-10T12:58:34.739Z,14.3
2017-10-10T12:59:37.076Z,14.4
2017-10-10T13:00:39.202Z,14.4
2017-10-10T13:01:41.256Z,14.5
2017-10-10T13:02:43.332Z,14.5
2017-10-10T13:03:45.425Z,14.5
2017-10-10T13:04:47.529Z,14.4
2017-10-10T13:05:49.609Z,14.4
2017-10-10T13:06:51.728Z,14.4
2017-10-10T13:07:54.178Z,14.3
2017-10-10T13:08:56.270Z,14.4
2017-10-10T13:09:58.355Z,14.4
2017-10-10T13:11:00.464Z,14.3
2017-10-10T13:12:02.560Z,14.2
2017-10-10T13:13:05.878Z,14.3
2017-10-10T13:14:07.950Z,14.2
2017-10-10T13:15:10.094Z,14.1
2017-10-10T13:16:12.173Z,14.3
2017-10-10T13:17:14.272Z,14.3
2017-10-10T13:18:16.833Z,14.3
2017-10-10T13:19:18.941Z,14.2
2017-10-10T13:20:21.069Z,14.1
2017-10-10T13:21:23.191Z,14.1
2017-10-10T13:22:25.321Z,14.1
2017-10-10T13:23:27.388Z,14.1
2017-10-10T13:24:29.533Z,14.1
2017-10-10T13:25:31.604Z,14.2
2017-10-10T13:26:34.035Z,14.2
2017-10-10T13:27:36.130Z,14.2
2017-10-10T13:28:38.473Z,14.1
2017-10-10T13:29:40.552Z,14.1
2017-10-10T13:30:42.593Z,14.1
2017-10-10T13:31:44.664Z,14.1
2017-10-10T13:32:46.785Z,14.1
2017-10-10T13:33:48.976Z,14.2
2017-10-10T13:34:51.066Z,14.2
2017-10-10T13:35:53.149Z,14.2
2017-10-10T13:36:55.234Z,14.3
2017-10-10T13:37:57.370Z,14.3
2017-10-10T13:38:59.507Z,14.2
2017-10-10T13:40:01.605Z,14.2
2017-10-10T13:41:03.707Z,14.1
2017-10-10T13:42:05.795Z,14.2
2017-10-10T13:43:07.873Z,14.1
2017-10-10T13:44:10.027Z,14.2
2017-10-10T13:45:12.144Z,14.1
2017-10-10T13:46:14.255Z,14
2017-10-10T13:47:16.397Z,14
2017-10-10T13:48:18.469Z,14.1
2017-10-10T13:49:20.556Z,14.1